Time;durP1;ratioP1;P1;durP2;ratioP2;P2;SDS_P1;SDS_P2;PMS_P1;PMS_P2;Temp;Humidity;BMP_temperature;BMP_pressure;BME280_temperature;BME280_humidity;BME280_pressure;Samples;Min_cycle;Max_cycle;Signal;HPM_P1;HPM_P2
2022/12/23 00:01:25;;;;;;;23.00;8.17;;;;;;;;;;5023494;28;20079;-78
2022/12/23 00:03:51;;;;;;;27.27;7.63;;;;;;;;;;5010581;28;20048;-79
2022/12/23 00:06:19;;;;;;;25.00;8.10;;;;;;;;;;5015736;28;20025;-79
2022/12/23 00:08:45;;;;;;;25.67;8.17;;;;;;;;;;5010160;28;20034;-78
2022/12/23 00:11:13;;;;;;;26.03;8.10;;;;;;;;;;5010979;28;20487;-79
2022/12/23 00:16:26;;;;;;;22.63;8.10;;;;;;;;;;5029495;28;20079;-79
2022/12/23 00:18:55;;;;;;;26.87;8.13;;;;;;;;;;5025885;28;20044;-80
2022/12/23 00:21:22;;;;;;;16.27;7.17;;;;;;;;;;5006375;28;20022;-79
2022/12/23 00:23:51;;;;;;;22.30;6.60;;;;;;;;;;5007528;28;20038;-80
2022/12/23 00:26:22;;;;;;;13.37;5.47;;;;;;;;;;5007524;28;20093;-79
2022/12/23 00:28:48;;;;;;;10.97;4.83;;;;;;;;;;5021804;28;20101;-79
2022/12/23 00:31:17;;;;;;;18.37;6.40;;;;;;;;;;5022952;28;20025;-79
2022/12/23 00:33:44;;;;;;;10.17;3.77;;;;;;;;;;5022172;28;20018;-79
2022/12/23 00:36:14;;;;;;;10.83;4.53;;;;;;;;;;5015935;28;20041;-78
2022/12/23 00:44:11;;;;;;;6.73;2.03;;;;;;;;;;5035292;28;20045;-79
2022/12/23 00:46:38;;;;;;;6.00;1.60;;;;;;;;;;5030945;28;20033;-80
2022/12/23 00:51:49;;;;;;;8.50;1.60;;;;;;;;;;5032808;28;20048;-80
2022/12/23 00:54:15;;;;;;;7.83;1.77;;;;;;;;;;5014253;28;20438;-78
2022/12/23 00:56:41;;;;;;;4.33;1.60;;;;;;;;;;5030029;28;20112;-78
2022/12/23 00:59:07;;;;;;;5.67;1.60;;;;;;;;;;5013590;28;20104;-77
2022/12/23 01:07:05;;;;;;;5.83;1.73;;;;;;;;;;5033535;28;20052;-78
2022/12/23 01:09:31;;;;;;;5.43;1.27;;;;;;;;;;5032313;28;20022;-77
2022/12/23 01:11:57;;;;;;;2.53;1.00;;;;;;;;;;5016154;28;20025;-77
2022/12/23 01:14:23;;;;;;;6.13;1.50;;;;;;;;;;5015527;28;20030;-78
2022/12/23 01:16:49;;;;;;;3.60;1.53;;;;;;;;;;5009880;28;20030;-78
2022/12/23 01:19:15;;;;;;;4.03;1.30;;;;;;;;;;5041897;28;20022;-78
2022/12/23 01:21:41;;;;;;;3.67;1.13;;;;;;;;;;5025899;28;20030;-79
2022/12/23 01:24:08;;;;;;;5.57;1.43;;;;;;;;;;5021349;28;20025;-79
2022/12/23 01:26:34;;;;;;;5.50;1.73;;;;;;;;;;5024095;28;20022;-78
2022/12/23 01:29:01;;;;;;;6.20;1.30;;;;;;;;;;5026428;28;20040;-77
2022/12/23 01:31:29;;;;;;;5.73;1.87;;;;;;;;;;5042388;28;20475;-78
2022/12/23 01:33:56;;;;;;;6.77;1.37;;;;;;;;;;5024968;28;20029;-79
2022/12/23 01:36:22;;;;;;;7.87;1.87;;;;;;;;;;5017019;28;20044;-80
2022/12/23 01:38:48;;;;;;;2.57;1.27;;;;;;;;;;5040058;28;20037;-78
2022/12/23 01:42:42;;;;;;;7.97;1.70;;;;;;;;;;5021227;28;20098;-78
2022/12/23 01:44:22;;;;;;;3.60;1.20;;;;;;;;;;5038444;28;20454;-78
2022/12/23 01:46:48;;;;;;;5.60;1.50;;;;;;;;;;5030973;28;20037;-78
2022/12/23 01:49:15;;;;;;;7.07;1.70;;;;;;;;;;5023220;28;20037;-78
2022/12/23 01:51:41;;;;;;;4.57;1.83;;;;;;;;;;5024306;28;20022;-78
2022/12/23 01:54:09;;;;;;;6.47;1.77;;;;;;;;;;5021956;28;20035;-79
2022/12/23 01:56:37;;;;;;;6.87;2.20;;;;;;;;;;5025696;28;20025;-78
2022/12/23 01:59:09;;;;;;;9.30;1.97;;;;;;;;;;5021050;28;20026;-78
2022/12/23 02:04:23;;;;;;;5.90;2.30;;;;;;;;;;5045609;28;20091;-79
2022/12/23 02:09:39;;;;;;;5.33;1.90;;;;;;;;;;5039297;28;20080;-79
2022/12/23 02:12:05;;;;;;;9.80;2.43;;;;;;;;;;5008457;28;20017;-79
2022/12/23 02:17:51;;;;;;;5.67;2.30;;;;;;;;;;5028007;28;20156;-79
2022/12/23 02:20:35;;;;;;;4.65;2.55;;;;;;;;;;5040868;28;20099;-79
2022/12/23 02:23:01;;;;;;;6.90;2.60;;;;;;;;;;5023555;28;20116;-79
2022/12/23 02:25:30;;;;;;;7.10;2.87;;;;;;;;;;5043539;28;20347;-78
2022/12/23 02:28:08;;;;;;;7.70;2.67;;;;;;;;;;5024257;28;20033;-78
2022/12/23 02:31:00;;;;;;;7.70;3.03;;;;;;;;;;5020609;28;20034;-77
2022/12/23 02:33:26;;;;;;;10.77;3.30;;;;;;;;;;5030407;28;20040;-78
2022/12/23 02:35:52;;;;;;;9.57;3.47;;;;;;;;;;5019837;28;20358;-79
2022/12/23 02:38:28;;;;;;;10.13;4.03;;;;;;;;;;5020688;28;20037;-79
2022/12/23 02:40:56;;;;;;;12.40;4.60;;;;;;;;;;5030623;28;20025;-79
2022/12/23 02:43:31;;;;;;;11.93;3.80;;;;;;;;;;5031780;28;20029;-79
2022/12/23 02:46:05;;;;;;;9.67;4.27;;;;;;;;;;5021494;28;20025;-78
2022/12/23 02:48:35;;;;;;;8.67;4.07;;;;;;;;;;5020176;28;20040;-79
2022/12/23 02:51:07;;;;;;;11.37;4.13;;;;;;;;;;5019882;28;20029;-79
2022/12/23 02:53:35;;;;;;;8.68;4.45;;;;;;;;;;5027840;28;20043;-79
2022/12/23 02:56:02;;;;;;;9.73;4.43;;;;;;;;;;5025675;28;20041;-78
2022/12/23 02:58:31;;;;;;;10.10;4.60;;;;;;;;;;5020069;28;20112;-78
2022/12/23 03:00:59;;;;;;;11.37;3.80;;;;;;;;;;5019993;28;20026;-79
2022/12/23 03:03:25;;;;;;;11.47;4.10;;;;;;;;;;5037009;28;20104;-79
2022/12/23 03:05:52;;;;;;;16.73;4.27;;;;;;;;;;5018849;28;20034;-78
2022/12/23 03:08:29;;;;;;;9.13;3.33;;;;;;;;;;5016262;28;20030;-78
2022/12/23 03:11:02;;;;;;;10.70;3.53;;;;;;;;;;5019234;28;20025;-79
2022/12/23 03:13:46;;;;;;;8.27;3.67;;;;;;;;;;5019592;28;20028;-79
2022/12/23 03:16:41;;;;;;;15.10;3.87;;;;;;;;;;5028638;28;20044;-79
2022/12/23 03:19:07;;;;;;;13.00;4.23;;;;;;;;;;4958784;28;20035;-78
2022/12/23 03:21:33;;;;;;;15.23;3.43;;;;;;;;;;5036194;28;20040;-79
2022/12/23 03:24:21;;;;;;;8.60;3.53;;;;;;;;;;5019555;28;20033;-78
2022/12/23 03:26:50;;;;;;;11.37;3.77;;;;;;;;;;5019507;28;20049;-80
2022/12/23 03:29:24;;;;;;;8.90;3.40;;;;;;;;;;5036406;28;20029;-79
2022/12/23 03:31:52;;;;;;;7.93;3.33;;;;;;;;;;5020890;28;20021;-79
2022/12/23 03:34:20;;;;;;;13.37;3.63;;;;;;;;;;5027198;28;20035;-78
2022/12/23 03:36:55;;;;;;;13.50;4.50;;;;;;;;;;5024674;28;20365;-80
2022/12/23 03:39:23;;;;;;;14.33;3.73;;;;;;;;;;5018909;28;20492;-78
2022/12/23 03:41:56;;;;;;;11.50;3.77;;;;;;;;;;5018984;28;20059;-79
2022/12/23 03:44:25;;;;;;;11.47;3.67;;;;;;;;;;5009417;28;20083;-78
2022/12/23 03:46:54;;;;;;;13.33;3.20;;;;;;;;;;5015922;28;20335;-80
2022/12/23 03:49:27;;;;;;;14.87;3.47;;;;;;;;;;5011358;28;20025;-79
2022/12/23 03:51:58;;;;;;;9.30;3.43;;;;;;;;;;5015015;28;20060;-79
2022/12/23 03:54:27;;;;;;;15.13;3.43;;;;;;;;;;5018886;28;20029;-78
2022/12/23 03:56:56;;;;;;;10.60;2.77;;;;;;;;;;5014658;28;20044;-78
2022/12/23 03:59:27;;;;;;;10.03;3.00;;;;;;;;;;5020152;28;20029;-78
2022/12/23 04:01:53;;;;;;;10.20;2.60;;;;;;;;;;5025036;28;20781;-79
2022/12/23 04:04:25;;;;;;;9.93;2.43;;;;;;;;;;5020176;28;20033;-79
2022/12/23 04:07:05;;;;;;;11.90;3.92;;;;;;;;;;5018034;28;20029;-79
2022/12/23 04:09:31;;;;;;;11.87;2.70;;;;;;;;;;5031335;28;20052;-78
2022/12/23 04:11:57;;;;;;;6.07;1.87;;;;;;;;;;5006320;28;20022;-78
2022/12/23 04:14:26;;;;;;;11.73;2.57;;;;;;;;;;5036227;28;20448;-79
2022/12/23 04:16:57;;;;;;;6.57;2.40;;;;;;;;;;5019510;28;20033;-78
2022/12/23 04:19:23;;;;;;;8.50;2.20;;;;;;;;;;5028706;28;20057;-79
2022/12/23 04:21:49;;;;;;;7.80;2.30;;;;;;;;;;5032532;28;20044;-78
2022/12/23 04:24:15;;;;;;;9.00;2.03;;;;;;;;;;5018231;28;20056;-78
2022/12/23 04:26:41;;;;;;;8.67;2.10;;;;;;;;;;5021652;28;20363;-78
2022/12/23 04:29:09;;;;;;;11.10;2.50;;;;;;;;;;5019720;28;20029;-78
2022/12/23 04:31:35;;;;;;;10.33;2.00;;;;;;;;;;5015404;28;20052;-79
2022/12/23 04:34:01;;;;;;;7.57;2.03;;;;;;;;;;5018604;28;20033;-78
2022/12/23 04:36:27;;;;;;;8.53;2.13;;;;;;;;;;5020570;28;20045;-78
2022/12/23 04:38:56;;;;;;;7.67;2.20;;;;;;;;;;5019231;28;20025;-78
2022/12/23 04:41:23;;;;;;;8.50;1.93;;;;;;;;;;5012394;28;20041;-77
2022/12/23 04:43:49;;;;;;;10.00;1.63;;;;;;;;;;5018870;28;20029;-78
2022/12/23 04:46:15;;;;;;;8.80;1.53;;;;;;;;;;5018105;28;20036;-79
2022/12/23 04:48:41;;;;;;;4.27;1.50;;;;;;;;;;5035058;28;20013;-78
2022/12/23 04:51:07;;;;;;;11.37;1.80;;;;;;;;;;5018207;28;20029;-78
2022/12/23 04:53:36;;;;;;;9.67;2.37;;;;;;;;;;5018153;28;20032;-79
2022/12/23 04:56:02;;;;;;;5.73;1.87;;;;;;;;;;5018085;28;20033;-78
2022/12/23 04:58:28;;;;;;;7.73;2.03;;;;;;;;;;5018079;28;20067;-78
2022/12/23 05:01:01;;;;;;;8.13;1.60;;;;;;;;;;5017975;28;20022;-78
2022/12/23 05:03:27;;;;;;;5.90;1.30;;;;;;;;;;5017864;28;20415;-78
2022/12/23 05:05:53;;;;;;;7.90;1.50;;;;;;;;;;5017491;28;20041;-78
2022/12/23 05:08:19;;;;;;;6.07;1.63;;;;;;;;;;5017931;28;20388;-78
2022/12/23 05:10:45;;;;;;;10.00;1.93;;;;;;;;;;5017916;28;20018;-76
2022/12/23 05:13:11;;;;;;;6.37;1.47;;;;;;;;;;5018533;28;20029;-78
2022/12/23 05:15:37;;;;;;;5.37;1.47;;;;;;;;;;5016266;28;20048;-78
2022/12/23 05:18:04;;;;;;;8.37;1.60;;;;;;;;;;5011215;28;20069;-76
2022/12/23 05:20:30;;;;;;;12.77;2.20;;;;;;;;;;5011077;28;20442;-77
2022/12/23 05:22:56;;;;;;;11.07;2.57;;;;;;;;;;5014427;28;20121;-77
2022/12/23 05:25:22;;;;;;;9.80;1.90;;;;;;;;;;5011938;28;20125;-77
2022/12/23 05:27:48;;;;;;;3.43;1.77;;;;;;;;;;5029252;28;20106;-78
2022/12/23 05:30:15;;;;;;;8.27;2.30;;;;;;;;;;5031416;28;20515;-76
2022/12/23 05:32:41;;;;;;;7.27;2.00;;;;;;;;;;5011258;28;20025;-77
2022/12/23 05:35:07;;;;;;;13.30;3.10;;;;;;;;;;5017922;28;20033;-77
2022/12/23 05:37:33;;;;;;;9.40;2.57;;;;;;;;;;5016909;28;20029;-76
2022/12/23 05:39:59;;;;;;;7.03;2.23;;;;;;;;;;5013284;28;20049;-78
2022/12/23 05:42:25;;;;;;;6.27;1.97;;;;;;;;;;5011928;28;20029;-77
2022/12/23 05:44:51;;;;;;;13.93;2.67;;;;;;;;;;5013353;28;20056;-78
2022/12/23 05:47:17;;;;;;;9.77;2.83;;;;;;;;;;5013685;28;20060;-76
2022/12/23 05:49:43;;;;;;;5.77;1.90;;;;;;;;;;5017907;28;20022;-78
2022/12/23 05:52:09;;;;;;;8.50;2.10;;;;;;;;;;5016386;28;20033;-76
2022/12/23 05:54:37;;;;;;;8.97;2.03;;;;;;;;;;5010645;28;20515;-78
2022/12/23 05:57:03;;;;;;;10.47;2.20;;;;;;;;;;5012221;28;20036;-77
2022/12/23 05:59:29;;;;;;;6.67;2.00;;;;;;;;;;5011549;28;20037;-77
2022/12/23 06:01:55;;;;;;;8.00;2.40;;;;;;;;;;5018617;28;20037;-78
2022/12/23 06:04:21;;;;;;;6.47;2.33;;;;;;;;;;5013980;28;20029;-77
2022/12/23 06:06:47;;;;;;;9.17;2.17;;;;;;;;;;5017566;28;20417;-77
2022/12/23 06:09:13;;;;;;;11.87;2.27;;;;;;;;;;5029375;28;20018;-78
2022/12/23 06:11:39;;;;;;;8.43;2.10;;;;;;;;;;5013619;28;20089;-77
2022/12/23 06:14:06;;;;;;;11.30;2.37;;;;;;;;;;5014464;28;20029;-78
2022/12/23 06:16:32;;;;;;;10.43;2.70;;;;;;;;;;5013667;28;20469;-78
2022/12/23 06:19:00;;;;;;;8.37;2.73;;;;;;;;;;5028160;28;20033;-77
2022/12/23 06:21:26;;;;;;;10.90;3.00;;;;;;;;;;5017253;28;20037;-78
2022/12/23 06:23:52;;;;;;;12.50;3.20;;;;;;;;;;5010266;28;20124;-78
2022/12/23 06:26:18;;;;;;;9.77;3.00;;;;;;;;;;5026633;28;20033;-78
2022/12/23 06:28:44;;;;;;;11.07;2.30;;;;;;;;;;5013159;28;20029;-78
2022/12/23 06:31:10;;;;;;;15.33;2.67;;;;;;;;;;5032698;28;20089;-78
2022/12/23 06:33:36;;;;;;;10.40;2.47;;;;;;;;;;5010230;28;20041;-78
2022/12/23 06:36:03;;;;;;;9.87;3.00;;;;;;;;;;5009065;28;20034;-78
2022/12/23 06:38:29;;;;;;;11.83;2.60;;;;;;;;;;5028328;28;20030;-76
2022/12/23 06:40:55;;;;;;;12.57;2.57;;;;;;;;;;5010176;28;20493;-76
2022/12/23 06:43:21;;;;;;;8.37;2.53;;;;;;;;;;5011488;28;20061;-77
2022/12/23 06:45:47;;;;;;;17.37;3.80;;;;;;;;;;5012043;28;20068;-77
2022/12/23 06:48:14;;;;;;;11.30;2.40;;;;;;;;;;5025002;28;20379;-77
2022/12/23 06:50:40;;;;;;;9.23;3.00;;;;;;;;;;5010594;28;20113;-77
2022/12/23 06:53:08;;;;;;;9.50;2.13;;;;;;;;;;5027645;28;20049;-77
2022/12/23 06:55:34;;;;;;;8.37;2.60;;;;;;;;;;5009616;28;20081;-77
2022/12/23 06:58:00;;;;;;;10.50;3.20;;;;;;;;;;5012351;28;20716;-77
2022/12/23 07:00:26;;;;;;;14.63;3.80;;;;;;;;;;5016031;28;20057;-77
2022/12/23 07:02:53;;;;;;;8.97;2.57;;;;;;;;;;5007679;28;20045;-77
2022/12/23 07:05:19;;;;;;;11.10;3.33;;;;;;;;;;5010222;28;20037;-77
2022/12/23 07:07:45;;;;;;;12.13;3.90;;;;;;;;;;5029848;28;20495;-77
2022/12/23 07:10:11;;;;;;;12.87;3.63;;;;;;;;;;5011468;28;20033;-77
2022/12/23 07:12:38;;;;;;;9.70;3.40;;;;;;;;;;5010999;28;20025;-78
2022/12/23 07:15:05;;;;;;;8.73;3.47;;;;;;;;;;5029326;28;20041;-78
2022/12/23 07:17:31;;;;;;;20.20;4.47;;;;;;;;;;5028797;28;20056;-78
2022/12/23 07:19:59;;;;;;;14.87;3.73;;;;;;;;;;5019393;28;20439;-77
2022/12/23 07:22:25;;;;;;;10.63;3.50;;;;;;;;;;5019448;28;20025;-78
2022/12/23 07:24:52;;;;;;;14.27;4.00;;;;;;;;;;5037740;28;20091;-78
2022/12/23 07:27:20;;;;;;;18.77;5.03;;;;;;;;;;5021583;28;20032;-79
2022/12/23 07:29:46;;;;;;;11.43;3.93;;;;;;;;;;5028046;28;20022;-78
2022/12/23 07:32:12;;;;;;;13.90;3.77;;;;;;;;;;5021182;28;20025;-78
2022/12/23 07:34:38;;;;;;;13.73;4.50;;;;;;;;;;5027709;28;20025;-78
2022/12/23 07:37:04;;;;;;;13.37;4.60;;;;;;;;;;5018501;28;20188;-78
2022/12/23 07:39:30;;;;;;;23.30;5.43;;;;;;;;;;5019578;28;20056;-78
2022/12/23 07:41:56;;;;;;;12.37;5.47;;;;;;;;;;5018930;28;20086;-79
2022/12/23 07:44:22;;;;;;;11.80;4.77;;;;;;;;;;5030388;28;20080;-78
2022/12/23 07:46:48;;;;;;;10.97;5.17;;;;;;;;;;5024891;28;20450;-79
2022/12/23 07:49:14;;;;;;;16.00;5.10;;;;;;;;;;5027570;28;20033;-78
2022/12/23 07:51:40;;;;;;;9.83;5.63;;;;;;;;;;5027622;28;20036;-78
2022/12/23 07:54:06;;;;;;;16.40;5.80;;;;;;;;;;5019110;28;20037;-78
2022/12/23 07:56:32;;;;;;;13.30;5.70;;;;;;;;;;5027917;28;20037;-78
2022/12/23 07:59:01;;;;;;;17.50;6.97;;;;;;;;;;5019463;28;20029;-78
2022/12/23 08:01:27;;;;;;;14.00;7.70;;;;;;;;;;5034998;28;20045;-78
2022/12/23 08:03:53;;;;;;;14.57;6.10;;;;;;;;;;5034403;28;20036;-78
2022/12/23 08:06:19;;;;;;;14.53;6.40;;;;;;;;;;5030594;28;20022;-78
2022/12/23 08:08:45;;;;;;;13.87;6.40;;;;;;;;;;5019104;28;20034;-78
2022/12/23 08:11:12;;;;;;;13.63;6.60;;;;;;;;;;5013966;28;20017;-77
2022/12/23 08:13:39;;;;;;;11.50;6.53;;;;;;;;;;5036609;28;20410;-77
2022/12/23 08:16:06;;;;;;;11.20;6.60;;;;;;;;;;5026457;28;20036;-79
2022/12/23 08:18:33;;;;;;;13.17;6.30;;;;;;;;;;5021553;28;20030;-78
2022/12/23 08:21:01;;;;;;;12.93;6.00;;;;;;;;;;5017442;28;20037;-78
2022/12/23 08:23:28;;;;;;;10.37;6.00;;;;;;;;;;5007314;28;20041;-79
2022/12/23 08:26:01;;;;;;;11.73;6.03;;;;;;;;;;5009580;28;20196;-78
2022/12/23 08:28:28;;;;;;;8.90;6.30;;;;;;;;;;5022016;28;20041;-78
2022/12/23 08:30:54;;;;;;;8.90;6.00;;;;;;;;;;5024772;28;20026;-78
2022/12/23 08:33:20;;;;;;;11.03;6.43;;;;;;;;;;5026825;28;20087;-77
2022/12/23 08:35:46;;;;;;;10.17;5.87;;;;;;;;;;5022577;28;20128;-79
2022/12/23 08:38:12;;;;;;;12.60;6.07;;;;;;;;;;5019414;28;20084;-80
2022/12/23 08:40:41;;;;;;;11.57;6.03;;;;;;;;;;5022069;28;20179;-79
2022/12/23 08:43:08;;;;;;;13.77;6.20;;;;;;;;;;5032563;28;20441;-78
2022/12/23 08:45:37;;;;;;;10.60;5.57;;;;;;;;;;5019370;28;20056;-77
2022/12/23 08:48:04;;;;;;;10.43;5.90;;;;;;;;;;5033850;28;20026;-80
2022/12/23 08:50:30;;;;;;;10.50;5.37;;;;;;;;;;5036627;28;20426;-78
2022/12/23 08:52:56;;;;;;;10.40;5.30;;;;;;;;;;5040203;28;20090;-78
2022/12/23 08:55:22;;;;;;;5.43;4.00;;;;;;;;;;5026998;28;20091;-79
2022/12/23 08:57:48;;;;;;;10.07;5.10;;;;;;;;;;5015299;28;20021;-78
2022/12/23 09:00:14;;;;;;;11.00;3.97;;;;;;;;;;5010936;28;20045;-80
2022/12/23 09:02:40;;;;;;;8.80;4.57;;;;;;;;;;5029498;28;20048;-77
2022/12/23 09:05:09;;;;;;;6.73;3.70;;;;;;;;;;5024379;28;20373;-78
2022/12/23 09:07:35;;;;;;;8.40;3.80;;;;;;;;;;5022117;28;20025;-79
2022/12/23 09:10:01;;;;;;;7.93;4.13;;;;;;;;;;5010892;28;20022;-78
2022/12/23 09:12:29;;;;;;;7.13;4.37;;;;;;;;;;5031203;28;20116;-80
2022/12/23 09:14:55;;;;;;;10.70;3.77;;;;;;;;;;5021484;28;20430;-78
2022/12/23 09:17:21;;;;;;;6.70;3.20;;;;;;;;;;5022575;28;20464;-77
2022/12/23 09:19:48;;;;;;;5.67;3.07;;;;;;;;;;5021353;28;20028;-78
2022/12/23 09:22:14;;;;;;;7.30;2.83;;;;;;;;;;5038282;28;20446;-78
2022/12/23 09:24:42;;;;;;;4.87;2.43;;;;;;;;;;5038131;28;20026;-79
2022/12/23 09:27:08;;;;;;;5.60;3.00;;;;;;;;;;5039998;28;20033;-78
2022/12/23 09:29:34;;;;;;;10.17;3.47;;;;;;;;;;5038558;28;20026;-78
2022/12/23 09:32:00;;;;;;;8.33;2.83;;;;;;;;;;5039957;28;20033;-78
2022/12/23 09:34:26;;;;;;;6.17;2.23;;;;;;;;;;5021911;28;20040;-78
2022/12/23 09:36:52;;;;;;;4.70;2.33;;;;;;;;;;5007958;28;20034;-78
2022/12/23 09:39:18;;;;;;;9.37;2.30;;;;;;;;;;5034295;28;20035;-79
2022/12/23 09:41:49;;;;;;;6.20;2.10;;;;;;;;;;5030413;28;20119;-79
2022/12/23 09:44:24;;;;;;;5.27;2.43;;;;;;;;;;5023863;28;20029;-78
2022/12/23 09:46:52;;;;;;;7.60;2.87;;;;;;;;;;5033951;28;20021;-78
2022/12/23 09:49:18;;;;;;;3.83;2.17;;;;;;;;;;5020775;28;20105;-77
2022/12/23 09:51:48;;;;;;;5.13;2.97;;;;;;;;;;5037893;28;20033;-77
2022/12/23 09:54:14;;;;;;;6.37;3.33;;;;;;;;;;5020860;28;20029;-78
2022/12/23 09:56:43;;;;;;;6.07;3.20;;;;;;;;;;5020673;28;20446;-78
2022/12/23 09:59:28;;;;;;;3.83;2.10;;;;;;;;;;5019697;28;20095;-78
2022/12/23 10:01:57;;;;;;;8.37;3.00;;;;;;;;;;5021023;28;20044;-78
2022/12/23 10:04:29;;;;;;;14.53;3.70;;;;;;;;;;5020808;28;20030;-78
2022/12/23 10:07:04;;;;;;;8.38;3.85;;;;;;;;;;5037884;28;20036;-78
2022/12/23 10:09:32;;;;;;;8.17;3.50;;;;;;;;;;5020815;28;20033;-78
2022/12/23 10:11:59;;;;;;;6.83;2.93;;;;;;;;;;5019201;28;20112;-78
2022/12/23 10:14:30;;;;;;;6.43;2.80;;;;;;;;;;5020743;28;20036;-78
2022/12/23 10:16:58;;;;;;;3.87;2.87;;;;;;;;;;5020430;28;20025;-77
2022/12/23 10:19:40;;;;;;;6.93;3.00;;;;;;;;;;5026173;28;20057;-78
2022/12/23 10:22:15;;;;;;;15.25;6.07;;;;;;;;;;5017407;28;20025;-78
2022/12/23 10:24:42;;;;;;;9.43;5.13;;;;;;;;;;5004226;28;20034;-77
2022/12/23 10:27:38;;;;;;;12.77;6.97;;;;;;;;;;5021112;28;20112;-77
2022/12/23 10:30:07;;;;;;;11.27;5.30;;;;;;;;;;5021332;28;20117;-77
2022/12/23 10:32:36;;;;;;;7.47;4.60;;;;;;;;;;5038554;28;20021;-78
2022/12/23 10:35:02;;;;;;;8.87;5.37;;;;;;;;;;5038842;28;20427;-77
2022/12/23 10:37:28;;;;;;;26.17;5.70;;;;;;;;;;5007002;28;20063;-77
2022/12/23 10:40:10;;;;;;;7.87;4.50;;;;;;;;;;5020264;28;20033;-77
2022/12/23 10:42:53;;;;;;;10.13;4.97;;;;;;;;;;5021288;28;20037;-77
2022/12/23 10:45:19;;;;;;;10.00;5.07;;;;;;;;;;5024017;28;20112;-77
2022/12/23 10:47:45;;;;;;;12.77;6.87;;;;;;;;;;5029498;28;20450;-79
2022/12/23 10:50:14;;;;;;;20.63;6.97;;;;;;;;;;5010273;28;20434;-78
2022/12/23 10:52:42;;;;;;;10.40;5.60;;;;;;;;;;5019859;28;20335;-78
2022/12/23 10:55:22;;;;;;;11.47;6.50;;;;;;;;;;5022831;28;20044;-78
2022/12/23 10:57:49;;;;;;;10.30;4.80;;;;;;;;;;5028590;28;20029;-78
2022/12/23 11:00:16;;;;;;;13.30;4.03;;;;;;;;;;5036835;28;20088;-79
2022/12/23 11:02:49;;;;;;;12.33;4.70;;;;;;;;;;5036597;28;20040;-77
2022/12/23 11:05:15;;;;;;;;;;;;;;;;;;5037109;28;20060;-78
2022/12/23 11:07:41;;;;;;;10.77;4.50;;;;;;;;;;5033144;28;20321;-78
2022/12/23 11:10:13;;;;;;;7.57;4.57;;;;;;;;;;5022379;28;20091;-78
2022/12/23 11:12:41;;;;;;;8.07;4.47;;;;;;;;;;5020839;28;20052;-77
2022/12/23 11:15:24;;;;;;;9.17;4.37;;;;;;;;;;5019936;28;20112;-78
2022/12/23 11:17:59;;;;;;;10.73;4.50;;;;;;;;;;5015023;28;20100;-79
2022/12/23 11:20:25;;;;;;;9.67;3.93;;;;;;;;;;5013710;28;20037;-77
2022/12/23 11:22:51;;;;;;;6.97;3.70;;;;;;;;;;5008816;28;20037;-77
2022/12/23 11:25:17;;;;;;;7.23;4.10;;;;;;;;;;5010127;28;20045;-77
2022/12/23 11:27:44;;;;;;;11.27;3.97;;;;;;;;;;5024111;28;20087;-77
2022/12/23 11:30:17;;;;;;;7.87;3.07;;;;;;;;;;5011778;28;20033;-76
2022/12/23 11:32:43;;;;;;;6.43;3.33;;;;;;;;;;5010650;28;20025;-77
2022/12/23 11:35:27;;;;;;;9.63;5.00;;;;;;;;;;5007921;28;20030;-77
2022/12/23 11:37:53;;;;;;;12.87;6.13;;;;;;;;;;5009323;28;20794;-77
2022/12/23 11:40:27;;;;;;;9.67;5.40;;;;;;;;;;5027911;28;20033;-77
2022/12/23 11:42:58;;;;;;;12.87;5.70;;;;;;;;;;5008437;28;20118;-76
2022/12/23 11:45:28;;;;;;;10.67;5.93;;;;;;;;;;5005217;28;20033;-77
2022/12/23 11:47:55;;;;;;;8.10;4.20;;;;;;;;;;5008512;28;20087;-78
2022/12/23 11:50:40;;;;;;;11.00;4.20;;;;;;;;;;5006626;28;20108;-77
2022/12/23 11:53:13;;;;;;;8.07;4.10;;;;;;;;;;5013169;28;20026;-76
2022/12/23 11:55:45;;;;;;;8.47;4.10;;;;;;;;;;5008704;28;20788;-78
2022/12/23 11:58:16;;;;;;;9.60;3.83;;;;;;;;;;5006571;28;20037;-77
2022/12/23 12:00:48;;;;;;;7.63;3.53;;;;;;;;;;5006689;28;20053;-76
2022/12/23 12:03:14;;;;;;;;;;;;;;;;;;5013870;28;20030;-77
2022/12/23 12:05:45;;;;;;;12.80;6.77;;;;;;;;;;5026193;28;20062;-77
2022/12/23 12:08:16;;;;;;;10.20;4.70;;;;;;;;;;5025098;28;20040;-76
2022/12/23 12:10:42;;;;;;;16.80;8.03;;;;;;;;;;5007750;28;20144;-78
2022/12/23 12:13:28;;;;;;;12.87;6.23;;;;;;;;;;5005833;28;20029;-77
2022/12/23 12:16:19;;;;;;;8.27;4.50;;;;;;;;;;5005629;28;20038;-77
2022/12/23 12:18:46;;;;;;;11.27;4.73;;;;;;;;;;5003895;28;20029;-76
2022/12/23 12:21:15;;;;;;;9.37;4.07;;;;;;;;;;5013404;28;20048;-76
2022/12/23 12:23:44;;;;;;;7.73;3.87;;;;;;;;;;5019917;28;20167;-78
2022/12/23 12:26:14;;;;;;;8.87;4.03;;;;;;;;;;5013110;28;20069;-76
2022/12/23 12:28:41;;;;;;;11.87;4.90;;;;;;;;;;5022335;28;20022;-78
2022/12/23 12:31:26;;;;;;;11.70;5.70;;;;;;;;;;5004409;28;20032;-78
2022/12/23 12:33:55;;;;;;;13.03;5.53;;;;;;;;;;5003936;28;20399;-76
2022/12/23 12:36:45;;;;;;;12.10;5.47;;;;;;;;;;5007857;28;20037;-80
2022/12/23 12:39:15;;;;;;;11.03;4.83;;;;;;;;;;4972312;28;20049;-77
2022/12/23 12:41:47;;;;;;;13.53;6.23;;;;;;;;;;5013529;28;20044;-76
2022/12/23 12:44:16;;;;;;;14.50;5.63;;;;;;;;;;5025074;28;20784;-78
2022/12/23 12:46:52;;;;;;;14.70;5.17;;;;;;;;;;5006809;28;20045;-77
2022/12/23 12:49:37;;;;;;;10.23;5.30;;;;;;;;;;5024957;28;20034;-77
2022/12/23 12:52:19;;;;;;;9.80;6.30;;;;;;;;;;5026011;28;20030;-77
2022/12/23 12:54:45;;;;;;;7.67;5.33;;;;;;;;;;5026637;28;20020;-80
2022/12/23 12:57:21;;;;;;;8.43;4.20;;;;;;;;;;5013094;28;20033;-78
2022/12/23 12:59:48;;;;;;;7.33;3.27;;;;;;;;;;5022479;28;20029;-76
2022/12/23 13:02:26;;;;;;;4.77;2.57;;;;;;;;;;5005988;28;20091;-77
2022/12/23 13:04:56;;;;;;;5.13;2.47;;;;;;;;;;5012518;28;20041;-76
2022/12/23 13:07:37;;;;;;;6.30;2.30;;;;;;;;;;5025871;28;20053;-78
2022/12/23 13:10:30;;;;;;;9.63;2.57;;;;;;;;;;5011621;28;20033;-77
2022/12/23 13:13:20;;;;;;;7.83;2.17;;;;;;;;;;5007907;28;20030;-79
2022/12/23 13:16:05;;;;;;;7.80;4.03;;;;;;;;;;5021137;28;20053;-78
2022/12/23 13:18:36;;;;;;;6.73;2.30;;;;;;;;;;5024482;28;20029;-78
2022/12/23 13:21:08;;;;;;;6.50;2.67;;;;;;;;;;5035982;28;20044;-79
2022/12/23 13:23:46;;;;;;;12.82;4.45;;;;;;;;;;5016807;28;20029;-78
2022/12/23 13:26:17;;;;;;;5.83;2.87;;;;;;;;;;5034327;28;20098;-78
2022/12/23 13:28:45;;;;;;;13.63;5.00;;;;;;;;;;5043263;28;20017;-77
2022/12/23 13:31:20;;;;;;;7.97;3.80;;;;;;;;;;5020018;28;20116;-78
2022/12/23 13:33:50;;;;;;;10.07;5.03;;;;;;;;;;5027711;28;20021;-78
2022/12/23 13:36:34;;;;;;;11.43;4.33;;;;;;;;;;5027264;28;20467;-78
2022/12/23 13:39:03;;;;;;;8.73;3.90;;;;;;;;;;5020500;28;20033;-78
2022/12/23 13:41:40;;;;;;;7.77;4.40;;;;;;;;;;5041312;28;20068;-77
2022/12/23 13:44:12;;;;;;;7.00;4.37;;;;;;;;;;5024376;28;20041;-77
2022/12/23 13:46:47;;;;;;;8.73;4.77;;;;;;;;;;5020247;28;20025;-78
2022/12/23 13:49:19;;;;;;;6.40;3.87;;;;;;;;;;5037443;28;20040;-78
2022/12/23 13:52:00;;;;;;;9.38;4.82;;;;;;;;;;5018354;28;20113;-78
2022/12/23 13:54:35;;;;;;;6.37;4.07;;;;;;;;;;5019860;28;20030;-78
2022/12/23 13:57:09;;;;;;;7.30;3.97;;;;;;;;;;5020750;28;20022;-78
2022/12/23 13:59:40;;;;;;;10.57;4.97;;;;;;;;;;5029601;28;20029;-78
2022/12/23 14:02:26;;;;;;;9.47;5.17;;;;;;;;;;5020379;28;20036;-78
2022/12/23 14:04:55;;;;;;;6.97;4.17;;;;;;;;;;5029704;28;20032;-78
2022/12/23 14:07:22;;;;;;;6.47;4.17;;;;;;;;;;5020469;28;20025;-77
2022/12/23 14:10:06;;;;;;;9.03;4.60;;;;;;;;;;5019752;28;20018;-78
2022/12/23 14:12:35;;;;;;;6.80;5.00;;;;;;;;;;5014608;28;20021;-78
2022/12/23 14:15:25;;;;;;;11.03;4.67;;;;;;;;;;5036891;28;20037;-78
2022/12/23 14:17:58;;;;;;;11.53;5.07;;;;;;;;;;5028647;28;20030;-77
2022/12/23 14:20:36;;;;;;;6.82;5.15;;;;;;;;;;5031770;28;20029;-78
2022/12/23 14:23:21;;;;;;;8.03;5.40;;;;;;;;;;5015007;28;20101;-78
2022/12/23 14:25:50;;;;;;;9.63;5.83;;;;;;;;;;5019540;28;20021;-79
2022/12/23 14:28:27;;;;;;;10.23;5.97;;;;;;;;;;5019692;28;20025;-77
2022/12/23 14:30:53;;;;;;;8.47;6.20;;;;;;;;;;5019682;28;20025;-78
2022/12/23 14:33:22;;;;;;;7.67;6.03;;;;;;;;;;5019132;28;20029;-78
2022/12/23 14:35:51;;;;;;;7.17;5.57;;;;;;;;;;5007731;28;20180;-78
2022/12/23 14:38:35;;;;;;;10.33;5.70;;;;;;;;;;5019218;28;20034;-78
2022/12/23 14:41:22;;;;;;;9.50;5.47;;;;;;;;;;5019551;28;20430;-78
2022/12/23 14:43:54;;;;;;;8.17;5.00;;;;;;;;;;5019521;28;20456;-76
2022/12/23 14:46:35;;;;;;;8.55;3.72;;;;;;;;;;5019421;28;20064;-77
2022/12/23 14:49:01;;;;;;;7.77;3.57;;;;;;;;;;5019722;28;20025;-78
2022/12/23 14:51:35;;;;;;;8.13;3.20;;;;;;;;;;5021174;28;20347;-78
2022/12/23 14:54:01;;;;;;;4.83;3.70;;;;;;;;;;5019290;28;20100;-77
2022/12/23 14:56:30;;;;;;;7.07;3.40;;;;;;;;;;5019431;28;20441;-76
2022/12/23 14:59:17;;;;;;;4.60;3.53;;;;;;;;;;5028108;28;20025;-76
2022/12/23 15:01:51;;;;;;;6.77;3.70;;;;;;;;;;5020362;28;20031;-76
2022/12/23 15:04:20;;;;;;;7.93;3.30;;;;;;;;;;5036518;28;20029;-76
2022/12/23 15:06:53;;;;;;;4.47;3.53;;;;;;;;;;5021809;28;20152;-77
2022/12/23 15:09:35;;;;;;;11.30;4.53;;;;;;;;;;5035984;28;20434;-76
2022/12/23 15:12:10;;;;;;;9.63;4.32;;;;;;;;;;5022153;28;20029;-76
2022/12/23 15:14:43;;;;;;;7.50;4.73;;;;;;;;;;5022985;28;20060;-76
2022/12/23 15:17:16;;;;;;;11.13;5.63;;;;;;;;;;5020375;28;20346;-77
2022/12/23 15:19:48;;;;;;;12.23;7.70;;;;;;;;;;5018535;28;20039;-77